createdAt,value
2018-06-05T00:01:55.528Z,15.20
2018-06-05T00:04:23.836Z,15.10
2018-06-05T00:06:52.159Z,15.10
2018-06-05T00:09:20.491Z,15.10
2018-06-05T00:11:48.849Z,15.10
2018-06-05T00:14:17.200Z,15.10
2018-06-05T00:16:45.573Z,15.20
2018-06-05T00:19:13.896Z,15.10
2018-06-05T00:21:42.232Z,15.10
2018-06-05T00:24:10.528Z,15.10
2018-06-05T00:26:38.868Z,15.10
2018-06-05T00:29:07.223Z,15.10
2018-06-05T00:31:35.547Z,15.00
2018-06-05T00:34:03.864Z,15.00
2018-06-05T00:36:32.167Z,14.90
2018-06-05T00:39:00.485Z,14.80
2018-06-05T00:41:28.798Z,14.80
2018-06-05T00:43:57.080Z,14.70
2018-06-05T00:46:25.416Z,14.70
2018-06-05T00:48:53.727Z,14.70
2018-06-05T00:51:33.382Z,14.70
2018-06-05T00:54:01.724Z,14.70
2018-06-05T00:56:30.136Z,14.60
2018-06-05T00:58:58.470Z,14.60
2018-06-05T01:01:26.795Z,14.60
2018-06-05T01:03:55.139Z,14.50
2018-06-05T01:06:23.462Z,14.50
2018-06-05T01:08:51.779Z,14.50
2018-06-05T01:11:20.980Z,14.50
2018-06-05T01:13:49.279Z,14.50
2018-06-05T01:16:17.579Z,14.50
2018-06-05T01:18:45.907Z,14.60
2018-06-05T01:21:14.223Z,14.60
2018-06-05T01:23:42.540Z,14.60
2018-06-05T01:26:10.891Z,14.60
2018-06-05T01:28:39.255Z,14.60
2018-06-05T01:31:07.721Z,14.60
2018-06-05T01:33:36.056Z,14.60
2018-06-05T01:38:32.488Z,14.70
2018-06-05T01:41:00.819Z,14.70
2018-06-05T01:43:29.178Z,14.60
2018-06-05T01:45:57.491Z,14.70
2018-06-05T01:48:25.791Z,14.70
2018-06-05T01:50:54.132Z,14.70
2018-06-05T01:53:22.469Z,14.70
2018-06-05T01:58:18.859Z,14.70
2018-06-05T02:00:47.175Z,14.70
2018-06-05T02:03:15.524Z,14.70
2018-06-05T02:05:43.836Z,14.70
2018-06-05T02:08:12.120Z,14.70
2018-06-05T02:10:40.480Z,14.70
2018-06-05T02:13:08.760Z,14.60
2018-06-05T02:15:37.128Z,14.70
2018-06-05T02:18:05.482Z,14.70
2018-06-05T02:20:33.801Z,14.70
2018-06-05T02:23:02.183Z,14.60
2018-06-05T02:25:30.468Z,14.60
2018-06-05T02:27:58.822Z,14.60
2018-06-05T02:30:27.120Z,14.60
2018-06-05T02:32:55.439Z,14.60
2018-06-05T02:35:23.816Z,14.70
2018-06-05T02:37:52.221Z,14.60
2018-06-05T02:40:20.507Z,14.60
2018-06-05T02:42:49.834Z,14.60
2018-06-05T02:45:18.160Z,14.60
2018-06-05T02:47:46.556Z,14.60
2018-06-05T02:50:14.908Z,14.60
2018-06-05T02:52:43.209Z,14.60
2018-06-05T02:55:11.660Z,14.60
2018-06-05T02:57:39.972Z,14.60
2018-06-05T03:00:08.412Z,14.60
2018-06-05T03:02:36.725Z,14.60
2018-06-05T03:05:05.048Z,14.60
2018-06-05T03:07:33.409Z,14.50
2018-06-05T03:10:01.708Z,14.50
2018-06-05T03:12:30.048Z,14.50
2018-06-05T03:14:58.691Z,14.50
2018-06-05T03:17:26.976Z,14.50
2018-06-05T03:19:55.312Z,14.50
2018-06-05T03:22:23.608Z,14.50
2018-06-05T03:24:51.987Z,14.40
2018-06-05T03:27:20.294Z,14.40
2018-06-05T03:29:48.608Z,14.40
2018-06-05T03:32:16.899Z,14.40
2018-06-05T03:34:45.216Z,14.40
2018-06-05T03:37:13.625Z,14.50
2018-06-05T03:39:41.975Z,14.50
2018-06-05T03:42:10.303Z,14.50
2018-06-05T03:44:38.631Z,14.50
2018-06-05T03:47:06.927Z,14.50
2018-06-05T03:49:41.427Z,14.50
2018-06-05T03:52:10.216Z,14.50
2018-06-05T03:54:38.595Z,14.50
2018-06-05T03:57:06.963Z,14.60
2018-06-05T03:59:35.276Z,14.60
2018-06-05T04:02:03.632Z,14.60
2018-06-05T04:04:31.963Z,14.60
2018-06-05T04:07:01.085Z,14.60
2018-06-05T04:09:29.380Z,14.60
2018-06-05T04:11:57.680Z,14.60
2018-06-05T04:14:26.016Z,14.60
2018-06-05T04:16:55.179Z,14.60
2018-06-05T04:19:23.523Z,14.70
2018-06-05T04:21:51.854Z,14.60
2018-06-05T04:24:20.183Z,14.70
2018-06-05T04:26:49.534Z,14.70
2018-06-05T04:29:17.843Z,14.70
2018-06-05T04:31:46.166Z,14.70
2018-06-05T04:34:14.454Z,14.70
2018-06-05T04:36:42.886Z,14.80
2018-06-05T04:39:11.201Z,14.80
2018-06-05T04:44:07.647Z,14.80
2018-06-05T04:46:35.956Z,14.80
2018-06-05T04:49:04.481Z,14.80
2018-06-05T04:51:32.784Z,14.90
2018-06-05T04:54:01.117Z,14.90
2018-06-05T04:56:29.440Z,14.90
2018-06-05T04:58:57.779Z,15.00
2018-06-05T05:01:26.108Z,15.00
2018-06-05T05:03:54.459Z,15.00
2018-06-05T05:06:23.456Z,15.00
2018-06-05T05:08:51.873Z,15.00
2018-06-05T05:11:20.156Z,15.00
2018-06-05T05:13:48.484Z,15.10
2018-06-05T05:16:16.824Z,15.10
2018-06-05T05:18:45.119Z,15.10
2018-06-05T05:21:13.468Z,15.10
2018-06-05T05:23:41.788Z,15.20
2018-06-05T05:26:10.088Z,15.20
2018-06-05T05:28:38.396Z,15.20
2018-06-05T05:31:06.710Z,15.30
2018-06-05T05:33:35.040Z,15.30
2018-06-05T05:36:03.388Z,15.30
2018-06-05T05:38:31.711Z,15.40
2018-06-05T05:41:00.096Z,15.40
2018-06-05T05:43:28.511Z,15.40
2018-06-05T05:45:56.892Z,15.40
2018-06-05T05:48:25.232Z,15.50
2018-06-05T05:50:53.574Z,15.50
2018-06-05T05:53:21.916Z,15.50
2018-06-05T05:55:50.265Z,15.50
2018-06-05T05:58:18.632Z,15.60
2018-06-05T06:00:46.973Z,15.60
2018-06-05T06:03:15.324Z,15.60
2018-06-05T06:05:43.659Z,15.60
2018-06-05T06:08:12.020Z,15.70
2018-06-05T06:10:40.332Z,15.70
2018-06-05T06:13:08.638Z,15.80
2018-06-05T06:15:36.928Z,15.80
2018-06-05T06:18:05.320Z,15.80
2018-06-05T06:20:33.884Z,15.80
2018-06-05T06:23:02.251Z,15.90
2018-06-05T06:25:31.278Z,15.90
2018-06-05T06:27:59.800Z,16.00
2018-06-05T06:30:28.079Z,16.10
2018-06-05T06:32:56.395Z,16.10
2018-06-05T06:35:24.713Z,16.20
2018-06-05T06:37:53.500Z,16.30
2018-06-05T06:40:21.896Z,16.60
2018-06-05T06:42:50.335Z,16.70
2018-06-05T06:45:18.640Z,16.90
2018-06-05T06:47:47.192Z,17.00
2018-06-05T06:50:15.645Z,17.10
2018-06-05T06:52:48.253Z,17.20
2018-06-05T06:55:18.775Z,17.30
2018-06-05T06:57:47.113Z,17.40
2018-06-05T07:00:15.485Z,17.40
2018-06-05T07:02:44.005Z,17.50
2018-06-05T07:05:12.430Z,17.60
2018-06-05T07:07:40.769Z,17.70
2018-06-05T07:10:09.245Z,17.80
2018-06-05T07:12:37.585Z,17.80
2018-06-05T07:15:05.916Z,18.00
2018-06-05T07:17:34.220Z,18.00
2018-06-05T07:20:02.547Z,18.10
2018-06-05T07:22:30.900Z,18.10
2018-06-05T07:24:59.220Z,18.10
2018-06-05T07:27:27.549Z,18.10
2018-06-05T07:29:55.856Z,18.10
2018-06-05T07:32:24.209Z,18.10
2018-06-05T07:34:52.567Z,18.10
2018-06-05T07:37:20.904Z,18.10
2018-06-05T07:39:49.298Z,18.10
2018-06-05T07:42:17.604Z,18.10
2018-06-05T07:44:45.910Z,18.10
2018-06-05T07:47:14.483Z,18.20
2018-06-05T07:49:42.788Z,18.30
2018-06-05T07:52:11.150Z,18.40
2018-06-05T07:54:40.274Z,18.50
2018-06-05T07:57:08.676Z,18.50
2018-06-05T07:59:39.552Z,18.50
2018-06-05T08:02:07.960Z,18.60
2018-06-05T08:04:36.288Z,18.60
2018-06-05T08:07:04.640Z,18.70
2018-06-05T08:09:33.007Z,18.80
2018-06-05T08:12:01.383Z,18.90
2018-06-05T08:14:29.847Z,19.10
2018-06-05T08:16:58.235Z,19.20
2018-06-05T08:19:26.792Z,19.40
2018-06-05T08:21:55.096Z,19.70
2018-06-05T08:24:23.571Z,20.00
2018-06-05T08:26:53.767Z,20.20
2018-06-05T08:29:22.388Z,20.50
2018-06-05T08:31:50.770Z,20.80
2018-06-05T08:34:19.327Z,21.00
2018-06-05T08:36:47.648Z,21.30
2018-06-05T08:39:16.042Z,21.60
2018-06-05T08:41:44.376Z,21.80
2018-06-05T08:44:13.196Z,22.00
2018-06-05T08:46:42.229Z,22.30
2018-06-05T08:51:38.764Z,22.80
2018-06-05T08:54:07.173Z,23.10
2018-06-05T08:56:35.654Z,23.50
2018-06-05T08:59:04.541Z,23.70
2018-06-05T09:01:33.034Z,24.00
2018-06-05T09:04:01.533Z,24.30
2018-06-05T09:06:29.946Z,24.60
2018-06-05T09:09:03.863Z,25.00
2018-06-05T09:11:36.100Z,25.40
2018-06-05T09:14:05.613Z,25.80
2018-06-05T09:16:34.109Z,26.00
2018-06-05T09:19:02.419Z,26.20
2018-06-05T09:21:30.873Z,26.40
2018-06-05T09:23:59.205Z,26.60
2018-06-05T09:26:27.608Z,26.90
2018-06-05T09:28:55.961Z,27.10
2018-06-05T09:31:24.298Z,27.30
2018-06-05T09:33:52.688Z,27.50
2018-06-05T09:36:20.973Z,27.50
2018-06-05T09:38:49.400Z,27.50
2018-06-05T09:41:18.222Z,27.60
2018-06-05T09:43:46.627Z,27.60
2018-06-05T09:46:17.384Z,27.50
2018-06-05T09:48:53.088Z,27.40
2018-06-05T09:51:21.808Z,27.10
2018-06-05T09:53:50.181Z,26.90
2018-06-05T09:56:21.843Z,26.60
2018-06-05T09:58:50.461Z,26.30
2018-06-05T10:01:18.818Z,26.20
2018-06-05T10:03:47.835Z,26.00
2018-06-05T10:06:16.165Z,25.80
2018-06-05T10:08:44.601Z,25.70
2018-06-05T10:11:12.928Z,25.60
2018-06-05T10:13:47.280Z,25.50
2018-06-05T10:18:58.566Z,25.20
2018-06-05T10:21:26.872Z,25.10
2018-06-05T10:23:55.544Z,24.90
2018-06-05T10:26:24.096Z,24.80
2018-06-05T10:28:52.449Z,24.80
2018-06-05T10:31:20.751Z,24.80
2018-06-05T10:33:49.104Z,24.90
2018-06-05T10:36:17.436Z,24.80
2018-06-05T10:38:45.747Z,24.70
2018-06-05T10:41:14.082Z,24.70
2018-06-05T10:43:42.536Z,24.70
2018-06-05T10:46:10.900Z,24.70
2018-06-05T10:48:39.325Z,24.90
2018-06-05T10:51:08.254Z,25.00
2018-06-05T10:53:37.533Z,25.10
2018-06-05T10:56:06.041Z,25.30
2018-06-05T10:58:36.318Z,25.50
2018-06-05T11:01:04.659Z,25.80
2018-06-05T11:03:33.357Z,26.30
2018-06-05T11:06:02.867Z,26.80
2018-06-05T11:08:31.217Z,27.30
2018-06-05T11:10:59.567Z,27.60
2018-06-05T11:13:27.998Z,28.20
2018-06-05T11:15:58.806Z,28.70
2018-06-05T11:18:27.371Z,29.10
2018-06-05T11:20:56.642Z,29.40
2018-06-05T11:23:25.401Z,29.70
2018-06-05T11:25:53.768Z,29.80
2018-06-05T11:28:22.114Z,29.90
2018-06-05T11:30:50.775Z,29.90
2018-06-05T11:33:19.221Z,30.10
2018-06-05T11:35:48.504Z,30.20
2018-06-05T11:38:16.840Z,30.30
2018-06-05T11:40:45.152Z,30.30
2018-06-05T11:43:13.516Z,30.30
2018-06-05T11:45:41.915Z,30.30
2018-06-05T11:48:10.299Z,30.50
2018-06-05T11:50:38.640Z,30.80
2018-06-05T11:53:06.986Z,31.10
2018-06-05T11:55:35.290Z,31.50
2018-06-05T11:58:03.608Z,31.90
2018-06-05T12:00:31.915Z,32.20
2018-06-05T12:03:00.220Z,32.40
2018-06-05T12:05:28.527Z,32.70
2018-06-05T12:07:56.803Z,32.80
2018-06-05T12:10:25.144Z,32.80
2018-06-05T12:12:53.417Z,33.00
2018-06-05T12:15:21.771Z,33.10
2018-06-05T12:17:50.084Z,33.30
2018-06-05T12:20:18.384Z,33.50
2018-06-05T12:22:46.687Z,33.90
2018-06-05T12:25:14.972Z,34.20
2018-06-05T12:27:43.328Z,34.40
2018-06-05T12:30:11.620Z,34.50
2018-06-05T12:32:39.973Z,34.50
2018-06-05T12:35:08.256Z,34.50
2018-06-05T12:37:36.656Z,34.60
2018-06-05T12:42:33.193Z,35.00
2018-06-05T12:45:02.116Z,35.20
2018-06-05T12:47:30.520Z,35.30
2018-06-05T12:49:58.852Z,35.40
2018-06-05T12:52:27.204Z,35.50
2018-06-05T12:54:56.575Z,35.30
2018-06-05T12:57:24.921Z,35.30
2018-06-05T12:59:53.453Z,35.30
2018-06-05T13:02:21.916Z,35.40
2018-06-05T13:04:52.110Z,35.40
2018-06-05T13:07:20.491Z,35.50
2018-06-05T13:09:48.819Z,35.70
2018-06-05T13:12:17.139Z,35.80
2018-06-05T13:14:45.434Z,35.80
2018-06-05T13:17:13.764Z,35.80
2018-06-05T13:19:42.109Z,35.80
2018-06-05T13:22:10.400Z,35.80
2018-06-05T13:24:38.731Z,35.70
2018-06-05T13:27:08.068Z,35.80
2018-06-05T13:29:36.420Z,36.10
2018-06-05T13:32:04.740Z,36.20
2018-06-05T13:34:33.068Z,36.10
2018-06-05T13:37:01.421Z,36.00
2018-06-05T13:39:29.785Z,36.10
2018-06-05T13:41:58.140Z,36.20
2018-06-05T13:44:26.459Z,36.30
2018-06-05T13:46:55.227Z,36.30
2018-06-05T13:49:23.528Z,35.90
2018-06-05T13:51:51.856Z,35.10
2018-06-05T13:54:20.748Z,34.40
2018-06-05T13:56:49.097Z,33.80
2018-06-05T13:59:17.404Z,33.60
2018-06-05T14:01:45.740Z,33.10
2018-06-05T14:06:42.189Z,32.90
2018-06-05T14:09:10.869Z,33.30
2018-06-05T14:11:39.204Z,33.60
2018-06-05T14:14:07.541Z,33.70
2018-06-05T14:16:35.904Z,33.40
2018-06-05T14:19:04.232Z,33.30
2018-06-05T14:21:32.594Z,32.90
2018-06-05T14:24:00.940Z,32.50
2018-06-05T14:26:29.294Z,32.10
2018-06-05T14:28:57.669Z,31.50
2018-06-05T14:31:25.964Z,31.00
2018-06-05T14:33:54.932Z,30.60
2018-06-05T14:36:23.251Z,30.70
2018-06-05T14:38:51.687Z,30.90
2018-06-05T14:41:20.013Z,31.10
2018-06-05T14:43:48.292Z,31.30
2018-06-05T14:46:16.664Z,31.60
2018-06-05T14:48:45.045Z,31.90
2018-06-05T14:51:13.416Z,32.20
2018-06-05T14:56:09.799Z,32.40
2018-06-05T14:58:38.192Z,32.30
2018-06-05T15:01:06.602Z,32.00
2018-06-05T15:03:34.926Z,31.40
2018-06-05T15:06:03.295Z,30.70
2018-06-05T15:08:31.648Z,30.00
2018-06-05T15:10:59.984Z,29.40
2018-06-05T15:13:28.292Z,28.80
2018-06-05T15:15:56.620Z,28.40
2018-06-05T15:18:24.920Z,28.00
2018-06-05T15:20:53.279Z,27.70
2018-06-05T15:23:21.700Z,27.40
2018-06-05T15:25:50.032Z,27.30
2018-06-05T15:28:18.407Z,27.20
2018-06-05T15:30:46.694Z,27.10
2018-06-05T15:33:15.020Z,27.00
2018-06-05T15:35:43.438Z,26.90
2018-06-05T15:38:11.905Z,26.70
2018-06-05T15:40:40.305Z,26.60
2018-06-05T15:43:08.607Z,26.40
2018-06-05T15:45:37.036Z,26.30
2018-06-05T15:48:05.596Z,26.10
2018-06-05T15:50:34.780Z,25.90
2018-06-05T15:53:03.096Z,25.70
2018-06-05T15:55:31.644Z,25.50
2018-06-05T16:00:28.071Z,25.20
2018-06-05T16:02:56.459Z,25.10
2018-06-05T16:05:24.783Z,25.10
2018-06-05T16:10:21.192Z,25.00
2018-06-05T16:12:49.671Z,25.00
2018-06-05T16:15:17.998Z,25.00
2018-06-05T16:17:46.576Z,25.00
2018-06-05T16:20:15.059Z,25.00
2018-06-05T16:22:43.388Z,25.00
2018-06-05T16:25:11.700Z,25.00
2018-06-05T16:27:40.093Z,25.00
2018-06-05T16:30:08.423Z,25.00
2018-06-05T16:32:36.774Z,24.80
2018-06-05T16:35:05.156Z,24.80
2018-06-05T16:37:33.461Z,24.70
2018-06-05T16:40:02.019Z,24.60
2018-06-05T16:42:30.400Z,24.50
2018-06-05T16:44:58.720Z,24.50
2018-06-05T16:47:27.041Z,24.40
2018-06-05T16:49:55.405Z,24.40
2018-06-05T16:52:23.708Z,24.40
2018-06-05T16:54:52.065Z,24.40
2018-06-05T16:57:20.388Z,24.30
2018-06-05T16:59:48.718Z,24.30
2018-06-05T17:02:17.065Z,24.20
2018-06-05T17:04:45.396Z,24.20
2018-06-05T17:07:13.720Z,24.10
2018-06-05T17:09:42.025Z,24.10
2018-06-05T17:12:10.376Z,24.00
2018-06-05T17:14:38.688Z,24.00
2018-06-05T17:17:07.085Z,23.80
2018-06-05T17:19:35.401Z,23.70
2018-06-05T17:22:03.729Z,23.70
2018-06-05T17:24:32.056Z,23.60
2018-06-05T17:27:00.392Z,23.50
2018-06-05T17:29:28.666Z,23.50
2018-06-05T17:31:56.985Z,23.40
2018-06-05T17:36:53.377Z,23.30
2018-06-05T17:39:21.677Z,23.30
2018-06-05T17:41:49.983Z,23.20
2018-06-05T17:44:18.328Z,23.10
2018-06-05T17:46:46.751Z,23.10
2018-06-05T17:49:15.130Z,23.00
2018-06-05T17:51:43.441Z,22.90
2018-06-05T17:56:39.893Z,22.80
2018-06-05T17:59:08.232Z,22.80
2018-06-05T18:01:36.552Z,22.70
2018-06-05T18:06:32.971Z,22.60
2018-06-05T18:09:01.289Z,22.60
2018-06-05T18:11:29.617Z,22.50
2018-06-05T18:13:58.155Z,22.40
2018-06-05T18:16:26.522Z,22.30
2018-06-05T18:18:54.874Z,22.30
2018-06-05T18:21:23.186Z,22.20
2018-06-05T18:23:51.556Z,22.20
2018-06-05T18:26:19.851Z,22.10
2018-06-05T18:28:48.363Z,22.00
2018-06-05T18:31:16.672Z,22.00
2018-06-05T18:33:44.972Z,21.90
2018-06-05T18:36:13.269Z,21.80
2018-06-05T18:38:42.302Z,21.80
2018-06-05T18:41:10.626Z,21.70
2018-06-05T18:43:38.989Z,21.70
2018-06-05T18:46:07.295Z,21.60
2018-06-05T18:48:35.815Z,21.60
2018-06-05T18:51:06.508Z,21.50
2018-06-05T18:53:34.889Z,21.50
2018-06-05T18:56:03.251Z,21.40
2018-06-05T18:58:31.589Z,21.30
2018-06-05T19:05:56.113Z,21.10
2018-06-05T19:08:24.421Z,21.10
2018-06-05T19:10:52.831Z,21.00
2018-06-05T19:13:21.200Z,20.90
2018-06-05T19:15:49.524Z,20.80
2018-06-05T19:18:17.899Z,20.70
2018-06-05T19:20:46.268Z,20.70
2018-06-05T19:23:14.597Z,20.60
2018-06-05T19:25:42.927Z,20.50
2018-06-05T19:28:11.303Z,20.40
2018-06-05T19:30:39.653Z,20.30
2018-06-05T19:33:08.000Z,20.30
2018-06-05T19:35:36.361Z,20.10
2018-06-05T19:38:04.684Z,20.10
2018-06-05T19:40:33.079Z,20.00
2018-06-05T19:43:01.474Z,19.90
2018-06-05T19:45:29.792Z,19.80
2018-06-05T19:47:58.156Z,19.80
2018-06-05T19:50:26.760Z,19.70
2018-06-05T19:55:23.233Z,19.50
2018-06-05T19:57:51.645Z,19.50
2018-06-05T20:00:19.981Z,19.40
2018-06-05T20:02:48.335Z,19.30
2018-06-05T20:05:16.757Z,19.30
2018-06-05T20:07:45.118Z,19.20
2018-06-05T20:10:13.429Z,19.10
2018-06-05T20:12:41.743Z,19.00
2018-06-05T20:15:10.140Z,18.90
2018-06-05T20:17:38.449Z,18.90
2018-06-05T20:20:07.900Z,18.80
2018-06-05T20:22:36.330Z,18.70
2018-06-05T20:25:04.761Z,18.70
2018-06-05T20:27:33.190Z,18.60
2018-06-05T20:30:01.521Z,18.50
2018-06-05T20:32:29.853Z,18.40
2018-06-05T20:34:58.180Z,18.40
2018-06-05T20:37:26.549Z,18.30
2018-06-05T20:39:54.953Z,18.20
2018-06-05T20:42:23.305Z,18.20
2018-06-05T20:44:51.716Z,18.10
2018-06-05T20:47:20.176Z,18.10
2018-06-05T20:49:48.517Z,18.00
2018-06-05T20:52:17.412Z,17.90
2018-06-05T20:54:45.717Z,17.80
2018-06-05T20:57:14.107Z,17.80
2018-06-05T20:59:42.400Z,17.70
2018-06-05T21:02:10.723Z,17.60
2018-06-05T21:04:39.059Z,17.50
2018-06-05T21:09:35.416Z,17.40
2018-06-05T21:12:03.753Z,17.40
2018-06-05T21:14:32.131Z,17.30
2018-06-05T21:17:01.226Z,17.20
2018-06-05T21:19:29.557Z,17.20
2018-06-05T21:21:57.857Z,17.10
2018-06-05T21:24:26.784Z,17.10
2018-06-05T21:26:55.152Z,17.00
2018-06-05T21:29:23.444Z,16.90
2018-06-05T21:31:51.783Z,16.90
2018-06-05T21:34:20.122Z,16.80
2018-06-05T21:36:48.533Z,16.80
2018-06-05T21:39:16.876Z,16.70
2018-06-05T21:41:45.208Z,16.70
2018-06-05T21:44:13.576Z,16.60
2018-06-05T21:46:41.868Z,16.50
2018-06-05T21:49:10.200Z,16.50
2018-06-05T21:51:38.520Z,16.40
2018-06-05T21:54:07.324Z,16.40
2018-06-05T21:56:35.656Z,16.30
2018-06-05T21:59:04.104Z,16.30
2018-06-05T22:04:00.532Z,16.20
2018-06-05T22:06:28.840Z,16.10
2018-06-05T22:08:57.158Z,16.10
2018-06-05T22:11:25.485Z,16.10
2018-06-05T22:13:53.840Z,16.00
2018-06-05T22:16:22.164Z,16.00
2018-06-05T22:18:50.503Z,15.90
2018-06-05T22:21:18.983Z,15.90
2018-06-05T22:23:47.264Z,15.80
2018-06-05T22:26:16.274Z,15.80
2018-06-05T22:28:44.560Z,15.70
2018-06-05T22:31:12.852Z,15.70
2018-06-05T22:33:41.179Z,15.70
2018-06-05T22:36:09.677Z,15.70
2018-06-05T22:38:38.193Z,15.60
2018-06-05T22:41:06.526Z,15.60
2018-06-05T22:43:34.883Z,15.60
2018-06-05T22:46:03.219Z,15.60
2018-06-05T22:48:31.534Z,15.60
2018-06-05T22:50:59.876Z,15.50
2018-06-05T22:53:28.156Z,15.50
2018-06-05T22:55:56.477Z,15.50
2018-06-05T22:58:25.249Z,15.50
2018-06-05T23:03:21.676Z,15.40
2018-06-05T23:05:49.999Z,15.40
2018-06-05T23:08:18.313Z,15.40
2018-06-05T23:10:46.656Z,15.40
2018-06-05T23:15:43.123Z,15.40
2018-06-05T23:18:11.430Z,15.40
2018-06-05T23:20:39.752Z,15.40
2018-06-05T23:23:08.102Z,15.30
2018-06-05T23:25:36.428Z,15.30
2018-06-05T23:28:04.785Z,15.30
2018-06-05T23:30:33.177Z,15.30
2018-06-05T23:35:29.610Z,15.20
2018-06-05T23:37:57.888Z,15.20
2018-06-05T23:40:26.187Z,15.20
2018-06-05T23:42:54.489Z,15.10
2018-06-05T23:45:22.864Z,15.10
2018-06-05T23:47:51.174Z,15.10
2018-06-05T23:50:19.520Z,15.10
2018-06-05T23:52:48.032Z,15.00
2018-06-05T23:55:16.328Z,15.00
2018-06-05T23:57:44.772Z,15.00
